Time;durP1;ratioP1;P1;durP2;ratioP2;P2;SDS_P1;SDS_P2;PMS_P1;PMS_P2;Temp;Humidity;BMP_temperature;BMP_pressure;BME280_temperature;BME280_humidity;BME280_pressure;Samples;Min_cycle;Max_cycle;Signal;HPM_P1;HPM_P2
2021/08/15 00:00:49;;;;;;;27.45;10.60;;;15.20;99.90;;;;;;6192092;22;20540;-87
2021/08/15 00:03:15;;;;;;;22.77;10.98;;;15.20;99.90;;;;;;6218305;22;20070;-87
2021/08/15 00:05:40;;;;;;;26.30;12.35;;;15.20;99.90;;;;;;6191924;22;20012;-87
2021/08/15 00:08:07;;;;;;;23.15;11.55;;;15.20;99.90;;;;;;6217246;22;20023;-87
2021/08/15 00:10:35;;;;;;;26.88;11.77;;;15.20;99.90;;;;;;6217772;22;20061;-88
2021/08/15 00:13:01;;;;;;;20.67;11.10;;;15.30;99.90;;;;;;6218750;22;20011;-88
2021/08/15 00:15:27;;;;;;;26.67;12.75;;;15.30;99.90;;;;;;6243326;22;20027;-88
2021/08/15 00:17:52;;;;;;;24.52;12.50;;;15.30;99.90;;;;;;6217430;22;20016;-87
2021/08/15 00:20:19;;;;;;;24.67;11.98;;;15.30;99.90;;;;;;6166437;22;20018;-87
2021/08/15 00:22:44;;;;;;;24.77;11.75;;;15.30;99.90;;;;;;6216898;22;20018;-88
2021/08/15 00:25:16;;;;;;;28.38;12.57;;;15.30;99.90;;;;;;6215887;22;20016;-88
2021/08/15 00:27:43;;;;;;;24.50;12.13;;;15.30;99.90;;;;;;6254026;22;20091;-86
2021/08/15 00:30:10;;;;;;;25.52;12.15;;;15.30;99.90;;;;;;6218074;22;20319;-86
2021/08/15 00:32:39;;;;;;;26.35;12.63;;;15.30;99.90;;;;;;6218674;22;20057;-86
2021/08/15 00:35:06;;;;;;;28.20;12.95;;;15.30;99.90;;;;;;6243820;22;20012;-86
2021/08/15 00:37:32;;;;;;;26.30;11.60;;;15.30;99.90;;;;;;6243377;22;20008;-86
2021/08/15 00:39:58;;;;;;;23.75;12.55;;;15.30;99.90;;;;;;6218658;22;20015;-86
2021/08/15 00:42:24;;;;;;;24.00;12.25;;;15.30;99.90;;;;;;6168799;22;20019;-86
2021/08/15 00:44:51;;;;;;;31.58;12.52;;;15.30;99.90;;;;;;6244035;22;20011;-86
2021/08/15 00:47:18;;;;;;;25.23;12.80;;;15.30;99.90;;;;;;6245046;22;20019;-87
2021/08/15 00:49:44;;;;;;;22.17;12.07;;;15.30;99.90;;;;;;6304257;22;20008;-87
2021/08/15 00:52:10;;;;;;;23.63;12.77;;;15.30;99.90;;;;;;6217597;22;20039;-87
2021/08/15 00:54:36;;;;;;;27.35;12.63;;;15.30;99.90;;;;;;6217935;22;20011;-87
2021/08/15 00:57:02;;;;;;;23.00;12.85;;;15.30;99.90;;;;;;6218363;22;20094;-87
2021/08/15 00:59:28;;;;;;;28.15;13.15;;;15.30;99.90;;;;;;6193159;22;20042;-87
2021/08/15 01:01:58;;;;;;;26.23;13.25;;;15.30;99.90;;;;;;6191245;22;20012;-86
2021/08/15 01:04:25;;;;;;;22.70;11.88;;;15.30;99.90;;;;;;6243498;22;20061;-86
2021/08/15 01:06:52;;;;;;;23.33;12.52;;;15.30;99.90;;;;;;6243983;22;20436;-87
2021/08/15 01:09:23;;;;;;;22.60;12.25;;;15.30;99.90;;;;;;6192832;22;20511;-86
2021/08/15 01:11:49;;;;;;;23.83;12.45;;;15.30;99.90;;;;;;6243863;22;20501;-87
2021/08/15 01:14:15;;;;;;;22.52;11.98;;;15.30;99.90;;;;;;6245104;22;20011;-87
2021/08/15 01:16:42;;;;;;;28.88;12.55;;;15.30;99.90;;;;;;6243645;22;20095;-86
2021/08/15 01:19:09;;;;;;;27.55;12.52;;;15.30;99.90;;;;;;6217751;22;20015;-86
2021/08/15 01:21:35;;;;;;;26.25;12.20;;;15.30;99.90;;;;;;6219132;22;20066;-86
2021/08/15 01:24:01;;;;;;;23.17;12.25;;;15.30;99.90;;;;;;6218677;22;20016;-86
2021/08/15 01:26:28;;;;;;;27.70;12.93;;;15.30;99.90;;;;;;6194549;22;20019;-86
2021/08/15 01:28:54;;;;;;;25.70;12.20;;;15.30;99.90;;;;;;6218599;22;20320;-86
2021/08/15 01:31:24;;;;;;;21.80;12.02;;;15.30;99.90;;;;;;6166894;22;20015;-86
2021/08/15 01:33:51;;;;;;;22.88;12.70;;;15.30;99.90;;;;;;6242501;22;20012;-86
2021/08/15 01:36:19;;;;;;;23.17;12.55;;;15.30;99.90;;;;;;6218820;22;20049;-86
2021/08/15 01:38:47;;;;;;;27.73;12.32;;;15.30;99.90;;;;;;6242610;22;20035;-86
2021/08/15 01:41:14;;;;;;;23.48;11.88;;;15.30;99.90;;;;;;6244389;22;20523;-86
2021/08/15 01:43:53;;;;;;;24.05;12.60;;;15.40;99.90;;;;;;6243796;22;20015;-86
2021/08/15 01:46:21;;;;;;;18.73;11.10;;;15.30;99.90;;;;;;6218519;22;20015;-87
2021/08/15 01:48:48;;;;;;;20.67;11.63;;;15.30;99.90;;;;;;6241294;22;20039;-86
2021/08/15 01:51:15;;;;;;;21.60;12.23;;;15.30;99.90;;;;;;6217761;22;20098;-87
2021/08/15 01:53:41;;;;;;;24.30;12.07;;;15.30;99.90;;;;;;6217211;22;20437;-87
2021/08/15 01:56:07;;;;;;;23.70;11.75;;;15.30;99.90;;;;;;6242661;22;20087;-86
2021/08/15 01:58:33;;;;;;;25.65;12.18;;;15.30;99.90;;;;;;6216282;22;20468;-86
2021/08/15 02:01:00;;;;;;;22.92;12.27;;;15.30;99.90;;;;;;6192505;22;20031;-86
2021/08/15 02:03:26;;;;;;;20.80;11.35;;;15.30;99.90;;;;;;6217088;22;20091;-86
2021/08/15 02:05:51;;;;;;;20.05;12.25;;;15.30;99.90;;;;;;6242706;22;20538;-87
2021/08/15 02:08:17;;;;;;;21.83;11.30;;;15.30;99.90;;;;;;6242440;22;20015;-86
2021/08/15 02:10:43;;;;;;;25.20;12.38;;;15.30;99.90;;;;;;6192493;22;20069;-86
2021/08/15 02:13:09;;;;;;;18.80;11.65;;;15.30;99.90;;;;;;6217116;22;20011;-86
2021/08/15 02:15:36;;;;;;;21.45;11.55;;;15.30;99.90;;;;;;6218131;22;20321;-86
2021/08/15 02:18:02;;;;;;;21.85;11.55;;;15.30;99.90;;;;;;6268554;22;20012;-86
2021/08/15 02:20:31;;;;;;;22.13;11.65;;;15.30;99.90;;;;;;6215553;22;20039;-88
2021/08/15 02:22:58;;;;;;;28.92;11.32;;;15.30;99.90;;;;;;6215253;22;20020;-87
2021/08/15 02:25:25;;;;;;;20.65;10.73;;;15.30;99.90;;;;;;6214717;22;20011;-86
2021/08/15 02:27:51;;;;;;;20.88;11.45;;;15.30;99.90;;;;;;6241466;22;20019;-86
2021/08/15 02:30:19;;;;;;;20.77;10.77;;;15.30;99.90;;;;;;6240177;22;20290;-87
2021/08/15 02:32:46;;;;;;;20.73;10.85;;;15.30;99.90;;;;;;6216893;22;20039;-86
2021/08/15 02:35:13;;;;;;;26.05;11.32;;;15.30;99.90;;;;;;6215563;22;20015;-86
2021/08/15 02:37:40;;;;;;;18.45;10.73;;;15.30;99.90;;;;;;6215129;22;20011;-87
2021/08/15 02:40:08;;;;;;;19.67;10.50;;;15.30;99.90;;;;;;6215680;22;20008;-86
2021/08/15 02:42:36;;;;;;;20.33;11.13;;;15.30;99.90;;;;;;6216141;22;20011;-86
2021/08/15 02:45:06;;;;;;;23.85;11.10;;;15.30;99.90;;;;;;6216410;22;20091;-87
2021/08/15 02:47:33;;;;;;;24.23;11.73;;;15.30;99.90;;;;;;6217273;22;20019;-87
2021/08/15 02:50:00;;;;;;;18.73;10.52;;;15.30;99.90;;;;;;6165871;22;20019;-86
2021/08/15 02:52:26;;;;;;;19.85;10.27;;;15.30;99.90;;;;;;6191243;22;20442;-87
2021/08/15 02:54:52;;;;;;;20.15;10.55;;;15.20;99.90;;;;;;6214611;22;20011;-87
2021/08/15 02:57:18;;;;;;;18.33;10.27;;;15.20;99.90;;;;;;6240400;22;20012;-87
2021/08/15 02:59:44;;;;;;;19.98;10.55;;;15.20;99.90;;;;;;6241330;22;20039;-87
2021/08/15 03:02:13;;;;;;;19.75;9.90;;;15.20;99.90;;;;;;6215679;22;20023;-86
2021/08/15 03:04:39;;;;;;;20.27;10.32;;;15.20;99.90;;;;;;6242432;22;20008;-87
2021/08/15 03:07:05;;;;;;;22.73;10.85;;;15.20;99.90;;;;;;6220098;22;20022;-87
2021/08/15 03:09:31;;;;;;;18.33;10.68;;;15.20;99.90;;;;;;6169444;22;20090;-87
2021/08/15 03:11:57;;;;;;;17.92;10.55;;;15.20;99.90;;;;;;6169402;22;20474;-88
2021/08/15 03:14:24;;;;;;;19.52;10.18;;;15.20;99.90;;;;;;6192137;22;20008;-87
2021/08/15 03:16:50;;;;;;;20.08;10.55;;;15.20;99.90;;;;;;6241174;22;20064;-89
2021/08/15 03:19:16;;;;;;;23.02;10.50;;;15.20;99.90;;;;;;6190511;22;20026;-87
2021/08/15 03:21:42;;;;;;;18.15;10.18;;;15.20;99.90;;;;;;6216395;22;20015;-89
2021/08/15 03:24:09;;;;;;;18.67;9.55;;;15.20;99.90;;;;;;6217436;22;20392;-87
2021/08/15 03:26:46;;;;;;;18.15;9.80;;;15.20;99.90;;;;;;6217965;22;20102;-89
2021/08/15 03:29:13;;;;;;;19.55;9.75;;;15.20;99.90;;;;;;6218892;22;20022;-87
2021/08/15 03:31:40;;;;;;;20.17;9.38;;;15.20;99.90;;;;;;6243551;22;20092;-88
2021/08/15 03:34:06;;;;;;;16.95;10.43;;;15.20;99.90;;;;;;6192029;22;20020;-88
2021/08/15 03:36:32;;;;;;;18.33;9.48;;;15.20;99.90;;;;;;6218139;22;20084;-88
2021/08/15 03:38:58;;;;;;;22.17;9.85;;;15.30;99.90;;;;;;6193442;22;20449;-88
2021/08/15 03:41:24;;;;;;;16.40;9.82;;;15.30;99.90;;;;;;6243408;22;20019;-91
2021/08/15 03:43:50;;;;;;;21.40;9.68;;;15.30;99.90;;;;;;6168489;22;20095;-91
2021/08/15 03:46:16;;;;;;;20.10;10.30;;;15.30;99.90;;;;;;6194122;22;20027;-87
2021/08/15 03:48:42;;;;;;;18.58;8.63;;;15.30;99.90;;;;;;6243627;22;20149;-87
2021/08/15 03:51:08;;;;;;;19.35;9.45;;;15.30;99.90;;;;;;6218782;22;20398;-87
2021/08/15 03:53:35;;;;;;;15.35;9.23;;;15.30;99.90;;;;;;6169950;22;20328;-89
2021/08/15 03:56:00;;;;;;;17.92;9.43;;;15.30;99.90;;;;;;6192930;22;20012;-89
2021/08/15 03:58:28;;;;;;;16.23;9.13;;;15.30;99.90;;;;;;6218166;22;20019;-88
2021/08/15 04:00:55;;;;;;;17.77;9.80;;;15.40;99.90;;;;;;6241689;22;20012;-89
2021/08/15 04:03:21;;;;;;;16.67;9.48;;;15.40;99.90;;;;;;6192397;22;20019;-87
2021/08/15 04:05:47;;;;;;;18.65;9.93;;;15.40;99.90;;;;;;6243337;22;20016;-87
2021/08/15 04:08:13;;;;;;;19.77;9.32;;;15.40;99.90;;;;;;6217877;22;20034;-87
2021/08/15 04:10:39;;;;;;;17.63;9.27;;;15.40;99.90;;;;;;6218000;22;20440;-87
2021/08/15 04:13:05;;;;;;;16.90;9.25;;;15.40;99.90;;;;;;6243612;22;20328;-88
2021/08/15 04:15:31;;;;;;;16.55;9.50;;;15.40;99.90;;;;;;6249726;22;19995;-89
2021/08/15 04:17:57;;;;;;;17.10;9.30;;;15.40;99.90;;;;;;6182694;22;20149;-89
2021/08/15 04:20:23;;;;;;;17.55;9.45;;;15.40;99.90;;;;;;6208425;22;20012;-87
2021/08/15 04:22:50;;;;;;;17.30;10.13;;;15.40;99.90;;;;;;6217347;22;20008;-87
2021/08/15 04:25:16;;;;;;;22.92;8.80;;;15.40;99.90;;;;;;6217061;22;20094;-87
2021/08/15 04:27:42;;;;;;;20.42;10.38;;;15.40;99.90;;;;;;6192345;22;20008;-87
2021/08/15 04:30:10;;;;;;;18.63;9.07;;;15.40;99.90;;;;;;6242775;22;20404;-87
2021/08/15 04:32:36;;;;;;;18.23;10.20;;;15.40;99.90;;;;;;6242875;22;20069;-87
2021/08/15 04:35:03;;;;;;;18.50;9.95;;;15.40;99.90;;;;;;6167652;22;20077;-88
2021/08/15 04:37:29;;;;;;;16.98;9.85;;;15.40;99.90;;;;;;6217385;22;20065;-88
2021/08/15 04:39:55;;;;;;;18.08;10.10;;;15.40;99.90;;;;;;6192231;22;20140;-88
2021/08/15 04:42:22;;;;;;;16.85;10.02;;;15.40;99.90;;;;;;6217356;22;20012;-89
2021/08/15 04:44:49;;;;;;;18.35;9.82;;;15.40;99.90;;;;;;6244605;22;20008;-86
2021/08/15 04:47:15;;;;;;;16.20;9.80;;;15.40;99.90;;;;;;6168411;22;20267;-88
2021/08/15 04:49:41;;;;;;;19.20;10.15;;;15.40;99.90;;;;;;6193159;22;20322;-86
2021/08/15 04:52:08;;;;;;;16.77;9.75;;;15.40;99.90;;;;;;6168500;22;20094;-86
2021/08/15 04:54:33;;;;;;;18.75;10.20;;;15.40;99.90;;;;;;6218724;22;20445;-90
2021/08/15 04:57:00;;;;;;;14.45;9.30;;;15.40;99.90;;;;;;6169283;22;20383;-87
2021/08/15 04:59:26;;;;;;;17.05;10.48;;;15.40;99.90;;;;;;6218596;22;20038;-87
2021/08/15 05:01:54;;;;;;;18.52;10.00;;;15.40;99.90;;;;;;6218817;22;20007;-88
2021/08/15 05:04:30;;;;;;;15.93;9.50;;;15.40;99.90;;;;;;6197121;22;20016;-87
2021/08/15 05:06:56;;;;;;;16.88;9.82;;;15.40;99.90;;;;;;6192454;22;20344;-87
2021/08/15 05:09:22;;;;;;;18.80;10.10;;;15.40;99.90;;;;;;6192947;22;20069;-88
2021/08/15 05:11:48;;;;;;;18.80;10.23;;;15.40;99.90;;;;;;6243454;22;20015;-89
2021/08/15 05:14:14;;;;;;;20.58;10.45;;;15.40;99.90;;;;;;6167379;22;20030;-89
2021/08/15 05:16:40;;;;;;;15.30;9.65;;;15.40;99.90;;;;;;6242465;22;20008;-87
2021/08/15 05:19:06;;;;;;;16.45;9.63;;;15.40;99.90;;;;;;6191597;22;20030;-91
2021/08/15 05:21:32;;;;;;;18.10;10.25;;;15.40;99.90;;;;;;6192195;22;20463;-87
2021/08/15 05:23:58;;;;;;;16.48;9.57;;;15.40;99.90;;;;;;6242062;22;20015;-87
2021/08/15 05:26:24;;;;;;;18.65;10.57;;;15.40;99.90;;;;;;6190963;22;20018;-87
2021/08/15 05:28:50;;;;;;;16.67;10.45;;;15.40;99.90;;;;;;6217926;22;20448;-87
2021/08/15 05:31:16;;;;;;;16.02;9.52;;;15.40;99.90;;;;;;6192397;22;20201;-87
2021/08/15 05:33:42;;;;;;;20.50;10.13;;;15.40;99.90;;;;;;6192863;22;20348;-90
2021/08/15 05:36:09;;;;;;;15.32;9.35;;;15.40;99.90;;;;;;6192578;22;20202;-87
2021/08/15 05:38:36;;;;;;;15.77;9.55;;;15.40;99.90;;;;;;6218382;22;20031;-88
2021/08/15 05:41:02;;;;;;;16.60;9.57;;;15.40;99.90;;;;;;6217770;22;20126;-89
2021/08/15 05:43:28;;;;;;;18.60;10.18;;;15.40;99.90;;;;;;6193156;22;20012;-89
2021/08/15 05:45:53;;;;;;;17.15;10.13;;;15.40;99.90;;;;;;6217495;22;20065;-88
2021/08/15 05:48:20;;;;;;;16.25;9.93;;;15.40;99.90;;;;;;6192820;22;20011;-87
2021/08/15 05:50:46;;;;;;;19.17;10.55;;;15.40;99.90;;;;;;6192992;22;20480;-87
2021/08/15 05:53:12;;;;;;;17.15;9.95;;;15.40;99.90;;;;;;6217619;22;20043;-90
2021/08/15 05:55:38;;;;;;;18.42;10.02;;;15.40;99.90;;;;;;6192909;22;20471;-93
2021/08/15 05:58:04;;;;;;;18.38;9.85;;;15.40;99.90;;;;;;6192684;22;20468;-87
2021/08/15 06:00:30;;;;;;;18.55;10.93;;;15.40;99.90;;;;;;6216915;22;20008;-88
2021/08/15 06:02:56;;;;;;;21.38;11.13;;;15.50;99.90;;;;;;6217481;22;20015;-88
2021/08/15 06:05:22;;;;;;;17.10;9.95;;;15.50;99.90;;;;;;6216910;22;20134;-87
2021/08/15 06:07:48;;;;;;;18.08;10.55;;;15.60;99.90;;;;;;6216726;22;20012;-88
2021/08/15 06:10:14;;;;;;;18.73;10.93;;;15.60;99.90;;;;;;6192186;22;20011;-88
2021/08/15 06:12:40;;;;;;;24.05;10.93;;;15.70;99.90;;;;;;6241126;22;20014;-88
2021/08/15 06:15:13;;;;;;;20.58;10.65;;;15.80;99.90;;;;;;6217130;22;20069;-90
2021/08/15 06:17:41;;;;;;;18.50;10.05;;;15.90;99.90;;;;;;6216990;22;20535;-88
2021/08/15 06:20:09;;;;;;;18.15;10.35;;;16.00;99.90;;;;;;6191384;22;20353;-87
2021/08/15 06:22:43;;;;;;;18.90;10.40;;;16.00;99.90;;;;;;6241496;22;20014;-88
2021/08/15 06:25:11;;;;;;;17.40;9.75;;;16.10;99.90;;;;;;6216525;22;20018;-86
2021/08/15 06:27:43;;;;;;;18.80;10.50;;;16.20;99.90;;;;;;6240516;22;20018;-86
2021/08/15 06:30:10;;;;;;;18.20;9.77;;;16.30;99.90;;;;;;6217423;22;20022;-85
2021/08/15 06:32:54;;;;;;;17.25;9.75;;;16.40;99.90;;;;;;6190753;22;20016;-86
2021/08/15 06:35:25;;;;;;;16.98;9.77;;;16.50;99.90;;;;;;6217104;22;20008;-85
2021/08/15 06:37:52;;;;;;;20.05;9.30;;;16.50;99.90;;;;;;6214824;22;20011;-87
2021/08/15 06:40:20;;;;;;;17.50;9.38;;;16.70;99.90;;;;;;6240988;22;20015;-87
2021/08/15 06:42:46;;;;;;;13.68;8.23;;;16.70;99.90;;;;;;6191157;22;20387;-86
2021/08/15 06:45:12;;;;;;;17.98;9.00;;;16.80;99.90;;;;;;6241277;22;20058;-85
2021/08/15 06:47:38;;;;;;;13.27;8.35;;;16.90;99.90;;;;;;6161805;22;20039;-86
2021/08/15 06:50:06;;;;;;;13.90;8.30;;;17.00;99.90;;;;;;6214688;22;20015;-86
2021/08/15 06:52:33;;;;;;;12.48;7.70;;;17.10;99.90;;;;;;6215987;22;20034;-86
2021/08/15 06:55:00;;;;;;;16.70;7.85;;;17.20;99.90;;;;;;6218777;22;20036;-85
2021/08/15 06:57:26;;;;;;;14.45;8.48;;;17.30;99.90;;;;;;6241209;22;20012;-86
2021/08/15 06:59:52;;;;;;;16.77;8.40;;;17.40;99.90;;;;;;6217858;22;20087;-86
2021/08/15 07:02:19;;;;;;;13.20;7.65;;;17.50;99.90;;;;;;6217367;22;20027;-89
2021/08/15 07:04:45;;;;;;;13.70;8.15;;;17.60;99.90;;;;;;6193001;22;20472;-87
2021/08/15 07:07:11;;;;;;;14.85;7.80;;;17.70;99.90;;;;;;6217540;22;20011;-87
2021/08/15 07:09:37;;;;;;;16.23;8.07;;;17.80;99.90;;;;;;6219353;22;20008;-88
2021/08/15 07:12:04;;;;;;;18.48;8.43;;;17.90;99.70;;;;;;6219278;22;20086;-88
2021/08/15 07:14:30;;;;;;;17.65;7.93;;;18.00;99.50;;;;;;6220051;22;20474;-86
2021/08/15 07:16:59;;;;;;;14.52;7.72;;;18.10;99.30;;;;;;6234571;22;20016;-87
2021/08/15 07:19:25;;;;;;;12.82;7.35;;;18.20;99.40;;;;;;6233520;22;20016;-86
2021/08/15 07:21:52;;;;;;;14.10;7.65;;;18.40;99.10;;;;;;6199069;22;20522;-88
2021/08/15 07:24:18;;;;;;;18.23;8.02;;;18.50;98.80;;;;;;6246403;22;20012;-88
2021/08/15 07:26:52;;;;;;;11.63;7.25;;;18.60;98.70;;;;;;6229375;22;20011;-86
2021/08/15 07:29:19;;;;;;;12.15;7.45;;;18.70;98.70;;;;;;6172971;22;20395;-86
2021/08/15 07:31:45;;;;;;;14.82;7.47;;;18.80;98.50;;;;;;6170749;22;20870;-87
2021/08/15 07:34:10;;;;;;;10.63;7.50;;;18.90;98.30;;;;;;6219782;22;20018;-87
2021/08/15 07:36:36;;;;;;;12.57;7.90;;;18.90;98.20;;;;;;6193619;22;20019;-88
2021/08/15 07:39:02;;;;;;;14.70;7.65;;;19.00;97.90;;;;;;6218538;22;20496;-89
2021/08/15 07:41:28;;;;;;;15.88;7.53;;;19.10;97.80;;;;;;6194932;22;20057;-88
2021/08/15 07:43:54;;;;;;;16.67;7.85;;;19.10;97.70;;;;;;6220535;22;20015;-88
2021/08/15 07:46:20;;;;;;;15.68;7.90;;;19.20;97.60;;;;;;6170421;22;20008;-87
2021/08/15 07:48:46;;;;;;;12.60;7.72;;;19.20;97.70;;;;;;6194728;22;20011;-88
2021/08/15 07:51:12;;;;;;;15.55;8.07;;;19.20;97.70;;;;;;6220970;22;20043;-88
2021/08/15 07:53:38;;;;;;;15.80;8.32;;;19.20;97.70;;;;;;6217214;22;20016;-89
2021/08/15 07:56:05;;;;;;;12.98;7.15;;;19.20;97.60;;;;;;6170503;22;20019;-89
2021/08/15 07:58:30;;;;;;;17.48;7.88;;;19.30;97.70;;;;;;6193712;22;20058;-88
2021/08/15 08:00:58;;;;;;;13.98;7.85;;;19.30;97.70;;;;;;6167324;22;20099;-88
2021/08/15 08:03:24;;;;;;;13.25;7.95;;;19.40;97.70;;;;;;6243919;22;20466;-88
2021/08/15 08:05:51;;;;;;;15.20;8.07;;;19.40;97.40;;;;;;6218938;22;20008;-88
2021/08/15 08:08:17;;;;;;;16.20;8.43;;;19.50;97.40;;;;;;6193731;22;20031;-88
2021/08/15 08:10:44;;;;;;;14.77;8.27;;;19.50;97.20;;;;;;6218329;22;20433;-88
2021/08/15 08:13:11;;;;;;;15.52;8.40;;;19.60;97.30;;;;;;6217325;22;20019;-88
2021/08/15 08:15:37;;;;;;;15.00;8.13;;;19.60;97.40;;;;;;6168205;22;20020;-89
2021/08/15 08:18:04;;;;;;;15.10;7.80;;;19.70;97.20;;;;;;6245300;22;20496;-89
2021/08/15 08:20:35;;;;;;;14.00;7.43;;;19.70;97.00;;;;;;6217751;22;20087;-88
2021/08/15 08:23:01;;;;;;;13.15;8.20;;;19.80;97.00;;;;;;6195433;22;20034;-87
2021/08/15 08:25:27;;;;;;;11.77;7.68;;;19.90;97.00;;;;;;6246929;22;20090;-87
2021/08/15 08:27:53;;;;;;;17.25;7.35;;;19.90;96.60;;;;;;6219821;22;20031;-86
2021/08/15 08:30:19;;;;;;;13.80;7.07;;;20.00;96.40;;;;;;6245571;22;20015;-88
2021/08/15 08:32:44;;;;;;;17.80;8.18;;;20.10;96.30;;;;;;6220328;22;20015;-88
2021/08/15 08:35:11;;;;;;;14.20;7.80;;;20.10;96.20;;;;;;6194703;22;20022;-90
2021/08/15 08:37:37;;;;;;;13.50;7.15;;;20.20;96.00;;;;;;6195845;22;20035;-87
2021/08/15 08:40:04;;;;;;;13.93;7.22;;;20.20;95.70;;;;;;6195035;22;20371;-86
2021/08/15 08:42:31;;;;;;;15.45;6.70;;;20.20;95.80;;;;;;6245967;22;20011;-86
2021/08/15 08:45:02;;;;;;;14.77;7.85;;;20.30;95.30;;;;;;6245069;22;20446;-87
2021/08/15 08:47:29;;;;;;;17.42;8.35;;;20.20;95.20;;;;;;6197138;22;20053;-87
2021/08/15 08:49:57;;;;;;;13.15;7.15;;;20.30;95.20;;;;;;6245346;22;20012;-88
2021/08/15 08:52:31;;;;;;;16.88;7.05;;;20.40;95.40;;;;;;6220189;22;20106;-87
2021/08/15 08:55:01;;;;;;;14.52;7.32;;;20.40;95.30;;;;;;6221566;22;20502;-88
2021/08/15 08:57:28;;;;;;;11.63;6.55;;;20.40;95.20;;;;;;6229715;22;20099;-88
2021/08/15 08:59:54;;;;;;;14.68;7.53;;;20.40;95.10;;;;;;6247017;22;20012;-87
2021/08/15 09:02:21;;;;;;;17.35;7.68;;;20.50;95.10;;;;;;6194465;22;20012;-89
2021/08/15 09:04:47;;;;;;;16.15;7.70;;;20.50;94.90;;;;;;6218387;22;20458;-89
2021/08/15 09:07:19;;;;;;;13.85;8.07;;;20.50;95.10;;;;;;6217942;22;20015;-89
2021/08/15 09:09:56;;;;;;;15.45;6.75;;;20.60;95.10;;;;;;6243671;22;20012;-88
2021/08/15 09:12:36;;;;;;;13.27;7.32;;;20.60;95.20;;;;;;6243361;22;20021;-88
2021/08/15 09:15:15;;;;;;;14.40;7.32;;;20.60;94.80;;;;;;6267516;22;20007;-87
2021/08/15 09:17:42;;;;;;;15.60;8.35;;;20.60;94.80;;;;;;6219386;22;20027;-86
2021/08/15 09:20:10;;;;;;;12.60;6.90;;;20.70;94.70;;;;;;6219218;22;20019;-89
2021/08/15 09:22:37;;;;;;;13.13;6.88;;;20.80;94.70;;;;;;6196290;22;20008;-86
2021/08/15 09:25:06;;;;;;;14.70;7.22;;;20.90;94.50;;;;;;6219301;22;20012;-87
2021/08/15 09:27:34;;;;;;;11.77;6.95;;;21.00;94.40;;;;;;6243238;22;20012;-87
2021/08/15 09:30:11;;;;;;;11.55;6.57;;;21.00;94.10;;;;;;6242338;22;20004;-88
2021/08/15 09:32:42;;;;;;;11.23;6.32;;;21.10;93.60;;;;;;6244010;22;20430;-89
2021/08/15 09:35:09;;;;;;;14.63;6.60;;;21.10;93.10;;;;;;6242373;22;20008;-86
2021/08/15 09:37:36;;;;;;;14.93;7.20;;;21.20;92.90;;;;;;6242200;22;20623;-90
2021/08/15 09:40:30;;;;;;;15.73;7.00;;;21.20;92.70;;;;;;6167899;22;20081;-87
2021/08/15 09:42:57;;;;;;;13.70;6.32;;;21.20;93.20;;;;;;6251499;22;20008;-87
2021/08/15 09:45:36;;;;;;;13.20;6.13;;;21.30;92.70;;;;;;6217586;22;20118;-86
2021/08/15 09:48:27;;;;;;;12.43;5.88;;;21.40;93.00;;;;;;6241889;22;20015;-88
2021/08/15 09:51:07;;;;;;;14.90;6.70;;;21.50;93.10;;;;;;6205320;22;20016;-88
2021/08/15 09:53:35;;;;;;;11.10;6.95;;;21.50;93.00;;;;;;6217982;22;20106;-87
2021/08/15 09:56:02;;;;;;;13.07;6.15;;;21.70;92.60;;;;;;6218695;22;20016;-87
2021/08/15 09:58:29;;;;;;;12.82;6.63;;;21.60;91.90;;;;;;6218418;22;20016;-88
2021/08/15 10:00:56;;;;;;;14.20;6.25;;;21.70;91.80;;;;;;6219350;22;20095;-89
2021/08/15 10:03:22;;;;;;;13.82;6.65;;;21.80;91.50;;;;;;6243387;22;20011;-89
2021/08/15 10:05:49;;;;;;;11.45;5.93;;;21.80;91.20;;;;;;6211102;22;20016;-87
2021/08/15 10:08:15;;;;;;;13.88;6.47;;;21.90;90.90;;;;;;6216599;22;20019;-87
2021/08/15 10:10:41;;;;;;;13.25;6.53;;;22.00;91.00;;;;;;6193199;22;20444;-87
2021/08/15 10:13:08;;;;;;;11.60;6.13;;;22.00;90.80;;;;;;6242201;22;20429;-87
2021/08/15 10:15:37;;;;;;;13.93;6.75;;;22.00;90.70;;;;;;6217625;22;20007;-87
2021/08/15 10:18:06;;;;;;;13.02;6.00;;;22.00;90.60;;;;;;6218693;22;20023;-86
2021/08/15 10:20:32;;;;;;;12.07;5.60;;;22.00;91.20;;;;;;6243620;22;20554;-85
2021/08/15 10:23:33;;;;;;;15.60;5.95;;;22.00;91.00;;;;;;6218315;22;20019;-89
2021/08/15 10:25:59;;;;;;;14.13;6.35;;;22.10;91.00;;;;;;6241722;22;20774;-89
2021/08/15 10:28:28;;;;;;;13.82;6.30;;;22.20;90.40;;;;;;6183783;22;20011;-87
2021/08/15 10:30:56;;;;;;;12.95;6.10;;;22.30;90.40;;;;;;6238224;22;20189;-86
2021/08/15 10:33:26;;;;;;;12.43;6.07;;;22.30;90.10;;;;;;6216755;22;20016;-89
2021/08/15 10:36:14;;;;;;;14.00;5.90;;;22.40;90.20;;;;;;6219567;22;20008;-86
2021/08/15 10:38:40;;;;;;;14.60;6.55;;;22.50;90.30;;;;;;6242796;22;20144;-87
2021/08/15 10:41:06;;;;;;;14.48;6.25;;;22.60;90.00;;;;;;6242239;22;20456;-88
2021/08/15 10:43:32;;;;;;;11.57;6.30;;;22.60;89.20;;;;;;6219518;22;20012;-88
2021/08/15 10:46:07;;;;;;;16.27;6.75;;;22.70;88.60;;;;;;6216778;22;20062;-85
2021/08/15 10:48:50;;;;;;;14.80;6.55;;;22.70;88.90;;;;;;6242499;22;20114;-86
2021/08/15 10:51:39;;;;;;;12.85;5.75;;;22.80;88.70;;;;;;6244325;22;20022;-87
2021/08/15 10:54:06;;;;;;;15.82;6.57;;;22.80;88.80;;;;;;6218578;22;20040;-88
2021/08/15 10:56:54;;;;;;;12.55;6.53;;;22.90;87.90;;;;;;6243607;22;20008;-88
2021/08/15 10:59:33;;;;;;;13.30;6.25;;;22.90;88.30;;;;;;6244015;22;20019;-86
2021/08/15 11:02:15;;;;;;;14.80;6.20;;;22.80;88.70;;;;;;6243566;22;20016;-89
2021/08/15 11:04:54;;;;;;;14.18;6.80;;;22.80;89.10;;;;;;6220487;22;20016;-89
2021/08/15 11:07:36;;;;;;;13.48;6.18;;;22.90;90.00;;;;;;6217215;22;20061;-85
2021/08/15 11:10:05;;;;;;;15.10;6.47;;;23.00;88.50;;;;;;6218463;22;20061;-88
2021/08/15 11:12:32;;;;;;;11.73;5.35;;;23.00;87.40;;;;;;6192609;22;20031;-89
2021/08/15 11:15:02;;;;;;;9.77;6.07;;;23.10;87.30;;;;;;6243154;22;20027;-87
2021/08/15 11:17:31;;;;;;;13.45;6.30;;;23.10;87.50;;;;;;6216021;22;20360;-88
2021/08/15 11:20:17;;;;;;;11.85;6.03;;;23.10;86.80;;;;;;6244455;22;20015;-86
2021/08/15 11:22:42;;;;;;;13.85;6.75;;;23.10;88.20;;;;;;6220921;22;20016;-87
2021/08/15 11:25:08;;;;;;;13.95;6.00;;;23.20;87.40;;;;;;6190928;22;20019;-87
2021/08/15 11:27:39;;;;;;;14.88;5.93;;;23.20;87.70;;;;;;6193278;22;20336;-86
2021/08/15 11:30:12;;;;;;;15.73;6.78;;;23.20;86.80;;;;;;6243409;22;20004;-90
2021/08/15 11:32:38;;;;;;;;;;;23.20;86.60;;;;;;6214633;22;20208;-87
2021/08/15 11:35:12;;;;;;;12.55;6.18;;;23.20;87.90;;;;;;6242409;22;19911;-88
2021/08/15 11:37:50;;;;;;;12.38;5.57;;;23.10;87.00;;;;;;6250893;22;20036;-87
2021/08/15 11:40:19;;;;;;;13.57;6.00;;;23.10;87.40;;;;;;6240280;22;20050;-87
2021/08/15 11:42:59;;;;;;;12.77;5.57;;;23.10;86.90;;;;;;6216835;22;20011;-87
2021/08/15 11:45:40;;;;;;;10.32;5.63;;;23.10;88.10;;;;;;6216461;22;20083;-86
2021/08/15 11:48:11;;;;;;;11.18;5.10;;;23.20;86.90;;;;;;6242977;22;20011;-87
2021/08/15 11:50:40;;;;;;;12.40;6.38;;;23.30;85.00;;;;;;6246097;22;20026;-88
2021/08/15 11:53:31;;;;;;;10.15;5.40;;;23.30;83.90;;;;;;6219114;22;20012;-87
2021/08/15 11:56:08;;;;;;;10.50;5.45;;;23.30;83.90;;;;;;6242641;22;20034;-86
2021/08/15 11:58:35;;;;;;;11.27;5.50;;;23.30;83.20;;;;;;6255414;22;20191;-88
2021/08/15 12:01:07;;;;;;;11.10;4.88;;;23.40;83.40;;;;;;6246048;22;20034;-87
2021/08/15 12:03:33;;;;;;;11.30;4.60;;;23.50;82.80;;;;;;6245708;22;20082;-86
2021/08/15 12:06:07;;;;;;;11.63;5.03;;;23.50;82.10;;;;;;6215995;22;20035;-88
2021/08/15 12:08:40;;;;;;;8.80;4.82;;;23.70;81.50;;;;;;6242287;22;20081;-87
2021/08/15 12:11:24;;;;;;;14.82;5.18;;;23.80;80.70;;;;;;6269829;22;20020;-88
2021/08/15 12:14:20;;;;;;;9.23;4.80;;;23.90;81.50;;;;;;6243142;22;20023;-88
2021/08/15 12:16:58;;;;;;;10.60;4.97;;;23.90;81.80;;;;;;6266155;22;20020;-89
2021/08/15 12:19:29;;;;;;;10.48;5.30;;;23.90;79.00;;;;;;6216932;22;20019;-88
2021/08/15 12:21:57;;;;;;;8.80;4.65;;;24.00;78.00;;;;;;6243056;22;20476;-88
2021/08/15 12:24:28;;;;;;;9.30;4.53;;;24.00;78.40;;;;;;6217159;22;20016;-87
2021/08/15 12:26:55;;;;;;;10.40;4.88;;;24.00;79.30;;;;;;6190781;22;20008;-87
2021/08/15 12:29:21;;;;;;;12.85;5.10;;;23.90;80.70;;;;;;6242049;22;20320;-87
2021/08/15 12:32:08;;;;;;;9.98;5.40;;;23.90;80.00;;;;;;6241239;22;20015;-88
2021/08/15 12:34:53;;;;;;;9.40;5.20;;;23.80;81.40;;;;;;6217259;22;20012;-88
2021/08/15 12:37:21;;;;;;;10.02;5.07;;;23.90;80.90;;;;;;6217388;22;20012;-87
2021/08/15 12:40:00;;;;;;;13.00;4.32;;;24.00;80.90;;;;;;6216360;22;20083;-86